• Join FlightAware (Why Join?)
  • Login
  • US Flag 
06:29AM EDT


 

Airport Tracker/Info


-or-


 

Live Flight TrackerFlight Track Log ✈ JZA7654 ✈ 28-Sep-2013 ✈ CYUL - KDCA

Flight Track Log - Related Links

Times and Time Zones

All times are in EDT time to prevent confusion due to time zone crossing. See the JZA7654 flight status page for this flight to view local times or setup timezone preferences in your user account.

Time Position Orientation Groundspeed Altitude Reporting Facility
EDT Latitude Longitude Course Direction KTS MPH feet Rate Location/Type
06:57PM 45.4833 -73.6667 360° North 220 253 100  Level Montreal Center
06:58PM 45.4667 -73.7000 235° Southwest 10 12 100 660 Level Montreal Center
06:59PM 45.4333 -73.7500 226° Southwest 180 207 1,600 2,340 Climbing Montreal Center
07:00PM 45.4000 -73.8000 226° Southwest 180 207 4,800 2,520 Climbing Montreal Center
07:01PM 45.3500 -73.8500 215° Southwest 260 299 6,700 2,400 Climbing Montreal Center
07:02PM 45.2667 -73.8667 188° South 280 322 9,600 2,760 Climbing Montreal Center
07:03PM 45.1833 -73.9167 203° Southwest 300 345 12,300 2,520 Climbing Montreal Center
07:04PM 45.1167 -73.9500 199° South 300 345 14,700 2,220 Climbing Montreal Center
07:05PM 45.0167 -73.9833 193° South 320 368 16,800 1,740 Climbing Montreal Center
07:06PM 44.9333 -73.9833 180° South 330 380 18,200 1,500 Climbing Montreal Center
07:07PM 44.8500 -73.9833 180° South 340 391 19,900 1,620 Climbing Montreal Center
07:08PM 44.7333 -73.9667 174° South 350 403 21,500 1,440 Climbing Montreal Center
07:09PM 44.6500 -73.9667 180° South 360 414 22,800 1,200 Climbing Montreal Center
07:10PM 44.5658 -73.9756 184° South 364 419 24,000 1,200 Climbing Boston Center
07:11PM 44.4469 -73.9697 178° South 379 436 25,300 1,260 Climbing Boston Center
07:12PM 44.3389 -73.9639 178° South 392 451 26,600 1,140 Climbing Boston Center
07:13PM 44.2264 -73.9581 178° South 397 457 27,600 900 Climbing Boston Center
07:14PM 44.1286 -73.9497 176° South 402 463 28,500 900 Climbing Boston Center
07:15PM 43.9994 -73.9467 179° South 418 481 29,500 840 Climbing Boston Center
07:16PM 43.8808 -73.9350 176° South 424 488 30,200 660 Climbing Boston Center
07:17PM 43.7619 -73.9292 178° South 424 488 30,900 720 Climbing Boston Center
07:18PM 43.6475 -73.9233 178° South 441 507 31,700 780 Climbing Boston Center
07:19PM 43.5267 -73.9206 179° South 441 507 32,600 780 Climbing Boston Center
07:20PM 43.4036 -73.9147 178° South 441 507 33,300 720 Climbing Boston Center
07:21PM 43.2683 -73.9028 176° South 441 507 34,100 600 Climbing Boston Center
07:22PM 43.1475 -73.9000 179° South 441 507 34,600 480 Climbing Boston Center
07:23PM 43.0225 -73.8914 177° South 441 507 35,100 420 Climbing Boston Center
07:24PM 42.8997 -73.8883 179° South 441 507 35,500 420 Climbing Boston Center
07:25PM 42.7789 -73.8800 177° South 441 507 36,000 240 Climbing Boston Center
07:26PM 42.6519 -73.8714 177° South 447 514 36,000  Level Boston Center
07:27PM 42.5247 -73.8711 180° South 447 514 36,000  Level Boston Center
07:28PM 42.3978 -73.8656 178° South 458 527 36,000  Level Boston Center
07:29PM 42.2453 -73.8789 184° South 458 527 36,000  Level Boston Center
07:30PM 42.1175 -73.9264 195° South 464 534 36,000  Level Boston Center
07:31PM 41.9919 -73.9708 195° South 470 541 36,000  Level Boston Center
07:33PM 41.7994 -74.0403 195° South 477 549 36,000 -120 Level New York Center
07:34PM 41.6711 -74.0842 194° South 477 549 35,800 -600 Descending New York Center
07:35PM 41.5617 -74.1258 196° South 477 549 34,900 -900 Descending New York Center
07:36PM 41.4414 -74.1861 201° Southwest 472 543 34,000 -480 Descending New York Center
07:37PM 41.3056 -74.2675 204° Southwest 477 549 34,000  Level New York Center
07:38PM 41.1908 -74.3469 208° Southwest 477 549 34,000  Level New York Center
07:39PM 41.0761 -74.4181 205° Southwest 471 542 34,000 -600 Level New York Center
07:40PM 40.9611 -74.4969 207° Southwest 471 542 32,900 -1,920 Descending New York Center
07:41PM 40.8442 -74.5756 207° Southwest 471 542 30,300 -2,400 Descending New York Center
07:42PM 40.7272 -74.6486 205° Southwest 471 542 28,100 -1,200 Descending New York Center
07:43PM 40.6100 -74.7239 206° Southwest 471 542 28,000 -60 Descending New York Center
07:44PM 40.5164 -74.8386 223° Southwest 462 532 28,000  Level New York Center
07:45PM 40.4289 -74.9589 226° Southwest 468 539 28,000 -660 Level New York Center
07:46PM 40.3431 -75.0844 228° Southwest 463 533 26,700 -1,380 Descending New York Center
07:47PM 40.2553 -75.2067 227° Southwest 469 540 25,300 -1,320 Descending New York Center
07:48PM 40.1714 -75.3264 228° Southwest 464 534 24,100 -1,260 Descending New York Center
07:49PM 40.0878 -75.4403 226° Southwest 451 519 22,800 -1,140 Descending New York Center
07:50PM 40.0106 -75.5489 227° Southwest 439 505 21,900 -1,020 Descending New York Center
07:51PM 39.9353 -75.6522 226° Southwest 416 479 20,900 -1,020 Descending New York Center
07:52PM 39.8664 -75.7556 229° Southwest 400 460 20,000 -900 Descending New York Center
07:53PM 39.8056 -75.8619 233° Southwest 387 445 19,100 -1,080 Descending New York Center
07:55PM 39.6833 -76.0500 230° Southwest 361 415 17,100 -1,140 Descending Potomac TRACON
07:56PM 39.6167 -76.1500 229° Southwest 338 389 15,800 -1,260 Descending Potomac TRACON
07:57PM 39.5667 -76.2333 232° Southwest 322 371 14,500 -1,320 Descending Potomac TRACON
07:58PM 39.5167 -76.3167 232° Southwest 315 362 13,300 -1,320 Descending Potomac TRACON
07:59PM 39.4500 -76.4000 224° Southwest 316 364 12,100 -960 Descending Potomac TRACON
08:00PM 39.3833 -76.4833 224° Southwest 309 356 11,400 -600 Descending Potomac TRACON
08:01PM 39.3167 -76.5333 210° Southwest 300 345 10,900 -480 Descending Potomac TRACON
08:02PM 39.2500 -76.6000 218° Southwest 299 344 10,500 -480 Descending Potomac TRACON
08:03PM 39.1833 -76.6500 210° Southwest 301 346 10,000 -240 Descending Potomac TRACON
08:04PM 39.1167 -76.7333 224° Southwest 289 333 10,000 -540 Level Potomac TRACON
08:05PM 39.0500 -76.8000 218° Southwest 297 342 8,900 -1,320 Descending Potomac TRACON
08:06PM 38.9833 -76.8833 224° Southwest 297 342 7,400 -1,500 Descending Potomac TRACON
08:07PM 38.9167 -76.9333 210° Southwest 280 322 5,800 -1,500 Descending Potomac TRACON
08:08PM 38.8500 -76.9500 191° South 254 292 4,400 -1,500 Descending Potomac TRACON
08:09PM 38.8000 -76.9500 180° South 242 278 3,000 -1,140 Descending Potomac TRACON
08:10PM 38.7500 -76.9833 207° Southwest 223 257 2,200 -720 Descending Potomac TRACON
08:11PM 38.7667 -77.0333 293° West 186 214 1,600 -660 Descending Potomac TRACON
08:12PM 38.8000 -77.0333 360° North 141 162 900 -720 Descending Potomac TRACON